createdAt,value
2022-12-19T00:00:38.019Z,11.23
2022-12-19T00:03:06.408Z,11.60
2022-12-19T00:05:38.505Z,11.50
2022-12-19T00:08:10.862Z,10.37
2022-12-19T00:10:57.469Z,11.60
2022-12-19T00:13:26.263Z,11.33
2022-12-19T00:15:55.146Z,10.67
2022-12-19T00:18:23.712Z,10.90
2022-12-19T00:20:59.813Z,10.80
2022-12-19T00:23:30.819Z,11.30
2022-12-19T00:26:10.631Z,13.82
2022-12-19T00:28:38.945Z,11.57
2022-12-19T00:31:08.580Z,12.03
2022-12-19T00:33:37.849Z,12.43
2022-12-19T00:36:14.124Z,11.40
2022-12-19T00:38:45.217Z,13.60
2022-12-19T00:41:17.311Z,12.20
2022-12-19T00:43:46.241Z,11.43
2022-12-19T00:46:16.237Z,11.50
2022-12-19T00:48:44.876Z,11.53
2022-12-19T00:51:15.373Z,14.25
2022-12-19T00:53:43.812Z,11.77
2022-12-19T00:56:15.748Z,12.50
2022-12-19T00:58:47.070Z,10.90
2022-12-19T01:01:18.415Z,10.90
2022-12-19T01:04:18.725Z,12.03
2022-12-19T01:06:36.068Z,12.37
2022-12-19T01:09:08.551Z,12.27
2022-12-19T01:11:55.640Z,12.07
2022-12-19T01:14:23.955Z,12.93
2022-12-19T01:16:52.445Z,13.80
2022-12-19T01:19:21.042Z,12.73
2022-12-19T01:21:49.307Z,13.57
2022-12-19T01:24:19.188Z,12.37
2022-12-19T01:26:49.070Z,12.53
2022-12-19T01:29:17.324Z,13.70
2022-12-19T01:31:45.644Z,12.40
2022-12-19T01:34:14.091Z,14.30
2022-12-19T01:36:42.366Z,13.07
2022-12-19T01:39:10.656Z,12.33
2022-12-19T01:41:39.138Z,11.40
2022-12-19T01:44:10.349Z,13.20
2022-12-19T01:46:42.131Z,13.63
2022-12-19T01:49:17.390Z,11.67
2022-12-19T01:51:49.940Z,12.83
2022-12-19T01:54:23.616Z,12.37
2022-12-19T01:56:54.478Z,15.53
2022-12-19T01:59:28.340Z,14.20
2022-12-19T02:02:03.222Z,13.43
2022-12-19T02:04:32.820Z,13.23
2022-12-19T02:07:06.947Z,13.33
2022-12-19T02:09:44.692Z,13.70
2022-12-19T02:12:13.093Z,12.93
2022-12-19T02:14:43.424Z,12.33
2022-12-19T02:17:19.365Z,12.90
2022-12-19T02:20:25.670Z,11.63
2022-12-19T02:23:12.376Z,11.83
2022-12-19T02:26:03.660Z,13.07
2022-12-19T02:29:00.552Z,13.23
2022-12-19T02:31:32.873Z,12.33
2022-12-19T02:34:05.438Z,12.82
2022-12-19T02:36:40.442Z,13.90
2022-12-19T02:39:16.940Z,11.30
2022-12-19T02:41:49.942Z,13.43
2022-12-19T02:44:22.321Z,13.33
2022-12-19T02:46:53.511Z,11.97
2022-12-19T02:49:26.857Z,11.97
2022-12-19T02:51:59.532Z,12.80
2022-12-19T02:54:27.832Z,12.67
2022-12-19T02:57:01.305Z,12.20
2022-12-19T02:59:43.027Z,13.07
2022-12-19T03:02:21.939Z,12.30
2022-12-19T03:04:56.000Z,12.20
2022-12-19T03:07:35.463Z,11.70
2022-12-19T03:10:13.251Z,12.27
2022-12-19T03:12:51.532Z,12.50
2022-12-19T03:15:21.193Z,11.83
2022-12-19T03:17:50.979Z,12.43
2022-12-19T03:20:25.373Z,11.60
2022-12-19T03:22:53.674Z,12.00
2022-12-19T03:25:23.535Z,13.07
2022-12-19T03:27:53.940Z,14.43
2022-12-19T03:30:22.814Z,12.23
2022-12-19T03:32:53.898Z,12.03
2022-12-19T03:35:24.304Z,12.17
2022-12-19T03:37:59.611Z,12.30
2022-12-19T03:40:30.015Z,14.13
2022-12-19T03:43:12.010Z,11.83
2022-12-19T03:46:02.021Z,12.03
2022-12-19T03:48:37.899Z,11.77
2022-12-19T03:51:18.927Z,12.37
2022-12-19T03:53:54.321Z,12.23
2022-12-19T03:56:31.669Z,12.40
2022-12-19T03:59:03.734Z,11.83
2022-12-19T04:01:35.364Z,12.03
2022-12-19T04:04:06.935Z,12.50
2022-12-19T04:06:36.596Z,12.60
2022-12-19T04:09:05.378Z,11.73
2022-12-19T04:11:39.191Z,11.00
2022-12-19T04:14:11.853Z,13.30
2022-12-19T04:16:49.196Z,12.20
2022-12-19T04:19:23.222Z,11.30
2022-12-19T04:21:57.627Z,10.97
2022-12-19T04:24:30.374Z,10.10
2022-12-19T04:26:59.672Z,12.27
2022-12-19T04:29:30.442Z,11.30
2022-12-19T04:31:58.823Z,11.23
2022-12-19T04:34:28.509Z,11.73
2022-12-19T04:36:56.847Z,11.77
2022-12-19T04:39:25.180Z,11.47
2022-12-19T04:41:53.810Z,12.50
2022-12-19T04:44:22.147Z,12.57
2022-12-19T04:46:50.420Z,11.53
2022-12-19T04:49:18.697Z,12.10
2022-12-19T04:51:48.558Z,11.23
2022-12-19T04:54:16.806Z,11.63
2022-12-19T04:56:45.137Z,11.70
2022-12-19T04:59:13.502Z,9.57
2022-12-19T05:01:41.856Z,11.03
2022-12-19T05:04:10.266Z,11.50
2022-12-19T05:06:39.576Z,11.17
2022-12-19T05:09:11.323Z,10.47
2022-12-19T05:11:40.155Z,12.48
2022-12-19T05:14:10.011Z,11.60
2022-12-19T05:16:38.261Z,12.43
2022-12-19T05:19:06.484Z,10.73
2022-12-19T05:21:34.853Z,11.93
2022-12-19T05:24:03.164Z,10.57
2022-12-19T05:26:33.241Z,13.00
2022-12-19T05:29:01.476Z,9.87
2022-12-19T05:31:29.815Z,11.37
2022-12-19T05:33:58.102Z,10.57
2022-12-19T05:36:30.782Z,10.70
2022-12-19T05:39:00.640Z,10.85
2022-12-19T05:41:28.925Z,10.30
2022-12-19T05:43:58.678Z,10.03
2022-12-19T05:46:27.767Z,11.73
2022-12-19T05:48:56.666Z,10.73
2022-12-19T05:51:25.280Z,9.68
2022-12-19T05:53:53.567Z,10.00
2022-12-19T05:56:23.372Z,9.53
2022-12-19T05:58:52.012Z,10.13
2022-12-19T06:01:23.538Z,9.10
2022-12-19T06:03:52.688Z,10.43
2022-12-19T06:06:23.533Z,10.50
2022-12-19T06:08:54.311Z,11.43
2022-12-19T06:11:22.999Z,9.30
2022-12-19T06:13:51.631Z,9.97
2022-12-19T06:16:23.734Z,10.17
2022-12-19T06:18:52.329Z,11.38
2022-12-19T06:21:22.092Z,10.57
2022-12-19T06:23:53.611Z,10.53
2022-12-19T06:26:23.163Z,9.30
2022-12-19T06:28:53.105Z,10.70
2022-12-19T06:31:24.699Z,9.00
2022-12-19T06:33:53.190Z,9.07
2022-12-19T06:36:23.526Z,10.43
2022-12-19T06:38:53.084Z,10.73
2022-12-19T06:41:39.449Z,9.00
2022-12-19T06:44:09.604Z,9.70
2022-12-19T06:46:40.509Z,8.63
2022-12-19T06:49:09.789Z,9.67
2022-12-19T06:51:38.563Z,11.57
2022-12-19T06:54:07.119Z,9.80
2022-12-19T06:56:38.735Z,9.23
2022-12-19T06:59:07.592Z,10.13
2022-12-19T07:01:48.453Z,9.73
2022-12-19T07:04:24.926Z,9.77
2022-12-19T07:06:53.282Z,10.03
2022-12-19T07:09:21.665Z,10.50
2022-12-19T07:11:49.936Z,11.10
2022-12-19T07:14:19.145Z,10.00
2022-12-19T07:16:53.341Z,10.70
2022-12-19T07:19:22.589Z,10.80
2022-12-19T07:21:51.293Z,8.47
2022-12-19T07:24:20.980Z,10.07
2022-12-19T07:26:49.685Z,10.63
2022-12-19T07:29:18.056Z,10.17
2022-12-19T07:31:46.378Z,9.83
2022-12-19T07:34:16.145Z,11.00
2022-12-19T07:36:44.443Z,10.23
2022-12-19T07:39:12.837Z,10.47
2022-12-19T07:41:44.153Z,9.67
2022-12-19T07:44:13.393Z,10.40
2022-12-19T07:46:41.664Z,9.90
2022-12-19T07:49:10.271Z,10.80
2022-12-19T07:51:39.980Z,10.70
2022-12-19T07:54:08.310Z,10.83
2022-12-19T07:56:36.639Z,9.60
2022-12-19T07:59:05.223Z,10.00
2022-12-19T08:01:33.802Z,10.10
2022-12-19T08:04:02.247Z,11.23
2022-12-19T08:06:30.624Z,10.00
2022-12-19T08:09:00.241Z,10.03
2022-12-19T08:11:29.832Z,12.52
2022-12-19T08:13:58.296Z,10.47
2022-12-19T08:16:28.794Z,10.40
2022-12-19T08:18:57.435Z,9.53
2022-12-19T08:21:26.048Z,10.43
2022-12-19T08:23:54.602Z,11.27
2022-12-19T08:26:26.047Z,10.87
2022-12-19T08:28:55.422Z,9.53
2022-12-19T08:31:25.578Z,11.57
2022-12-19T08:33:55.000Z,9.97
2022-12-19T08:36:24.000Z,10.53
2022-12-19T08:38:53.547Z,13.05
2022-12-19T08:41:21.812Z,11.70
2022-12-19T08:43:53.530Z,10.40
2022-12-19T08:46:24.562Z,9.83
2022-12-19T08:48:53.158Z,11.13
2022-12-19T08:51:23.310Z,11.97
2022-12-19T08:53:52.393Z,10.47
2022-12-19T08:56:22.409Z,12.10
2022-12-19T08:58:52.968Z,11.87
2022-12-19T09:01:24.036Z,10.90
2022-12-19T09:05:26.036Z,12.30
2022-12-19T09:06:47.916Z,11.47
2022-12-19T09:09:18.467Z,12.07
2022-12-19T09:11:48.204Z,10.73
2022-12-19T09:14:21.193Z,11.10
2022-12-19T09:16:50.361Z,13.50
2022-12-19T09:19:18.834Z,10.00
2022-12-19T09:21:49.526Z,12.00
2022-12-19T09:24:17.846Z,11.07
2022-12-19T09:26:46.209Z,11.37
2022-12-19T09:29:20.931Z,14.80
2022-12-19T09:31:56.510Z,11.03
2022-12-19T09:34:38.145Z,12.80
2022-12-19T09:37:38.018Z,12.00
2022-12-19T09:40:07.350Z,12.43
2022-12-19T09:43:03.229Z,14.05
2022-12-19T09:49:48.044Z,11.20
2022-12-19T09:52:19.901Z,10.63
2022-12-19T09:54:54.160Z,13.80
2022-12-19T09:57:27.495Z,12.77
2022-12-19T10:00:00.120Z,11.00
2022-12-19T10:02:38.777Z,11.43
2022-12-19T10:05:29.339Z,11.37
2022-12-19T10:08:15.360Z,12.63
2022-12-19T10:12:39.794Z,11.40
2022-12-19T10:14:04.662Z,12.80
2022-12-19T10:16:52.136Z,11.63
2022-12-19T10:19:40.209Z,10.37
2022-12-19T10:22:19.823Z,11.43
2022-12-19T10:25:15.177Z,10.40
2022-12-19T10:27:59.731Z,10.87
2022-12-19T10:30:31.899Z,12.53
2022-12-19T10:33:16.224Z,10.90
2022-12-19T10:35:55.622Z,11.57
2022-12-19T10:38:33.036Z,11.53
2022-12-19T10:41:16.583Z,11.70
2022-12-19T10:43:53.445Z,11.57
2022-12-19T10:46:31.470Z,12.50
2022-12-19T10:49:00.158Z,11.67
2022-12-19T10:51:30.649Z,10.50
2022-12-19T10:54:01.489Z,11.40
2022-12-19T10:56:37.069Z,12.50
2022-12-19T10:59:16.523Z,11.00
2022-12-19T11:01:45.398Z,9.80
2022-12-19T11:04:30.629Z,12.33
2022-12-19T11:07:19.638Z,13.50
2022-12-19T11:10:05.657Z,12.10
2022-12-19T11:17:03.880Z,12.47
2022-12-19T11:18:53.648Z,11.70
2022-12-19T11:29:26.911Z,12.23
2022-12-19T11:29:31.807Z,11.70
2022-12-19T11:29:41.500Z,12.47
2022-12-19T11:30:37.982Z,10.63
2022-12-19T11:32:42.769Z,11.97
2022-12-19T11:35:20.959Z,11.97
2022-12-19T11:37:56.234Z,12.20
2022-12-19T11:40:32.985Z,10.83
2022-12-19T11:43:43.155Z,12.23
2022-12-19T11:46:04.131Z,13.90
2022-12-19T11:48:41.159Z,12.20
2022-12-19T11:51:18.850Z,10.77
2022-12-19T11:53:54.279Z,11.80
2022-12-19T11:56:25.542Z,13.37
2022-12-19T11:58:59.087Z,12.67
2022-12-19T12:01:45.726Z,13.63
2022-12-19T12:04:39.460Z,14.10
2022-12-19T12:07:13.607Z,13.17
2022-12-19T12:14:22.676Z,12.50
2022-12-19T12:20:43.716Z,14.20
2022-12-19T12:30:59.334Z,13.17
2022-12-19T12:31:12.797Z,14.48
2022-12-19T12:31:22.013Z,12.17
2022-12-19T12:31:23.723Z,12.17
2022-12-19T12:31:50.063Z,12.47
2022-12-19T12:35:57.124Z,13.00
2022-12-19T12:40:36.330Z,12.87
2022-12-19T12:43:16.331Z,12.20
2022-12-19T12:45:46.247Z,12.93
2022-12-19T12:48:23.491Z,12.63
2022-12-19T12:50:55.042Z,15.43
2022-12-19T12:53:27.944Z,13.53
2022-12-19T12:55:58.974Z,13.40
2022-12-19T12:59:05.662Z,13.10
2022-12-19T13:01:40.335Z,11.93
2022-12-19T13:04:26.891Z,12.87
2022-12-19T13:07:28.591Z,11.90
2022-12-19T13:10:17.294Z,13.23
2022-12-19T13:13:01.510Z,11.73
2022-12-19T13:15:42.491Z,13.60
2022-12-19T13:18:40.958Z,12.43
2022-12-19T13:21:11.215Z,13.17
2022-12-19T13:24:16.008Z,11.50
2022-12-19T13:26:51.230Z,11.70
2022-12-19T13:29:31.357Z,14.40
2022-12-19T13:32:14.987Z,12.63
2022-12-19T13:35:12.762Z,11.60
2022-12-19T13:40:01.897Z,13.10
2022-12-19T13:40:56.698Z,12.13
2022-12-19T13:43:47.739Z,12.30
2022-12-19T13:46:38.040Z,12.17
2022-12-19T13:49:12.418Z,12.33
2022-12-19T13:51:59.908Z,12.17
2022-12-19T13:54:33.022Z,14.27
2022-12-19T13:57:09.218Z,12.53
2022-12-19T13:59:45.550Z,13.17
2022-12-19T14:02:33.091Z,13.13
2022-12-19T14:06:15.189Z,14.47
2022-12-19T14:08:19.566Z,16.02
2022-12-19T14:11:41.003Z,13.03
2022-12-19T14:14:12.730Z,12.90
2022-12-19T14:16:45.924Z,13.10
2022-12-19T14:19:23.052Z,12.30
2022-12-19T14:22:10.608Z,13.37
2022-12-19T14:24:40.438Z,12.93
2022-12-19T14:28:20.908Z,13.63
2022-12-19T14:30:26.245Z,13.17
2022-12-19T14:33:44.502Z,14.25
2022-12-19T14:36:10.647Z,12.70
2022-12-19T14:39:24.703Z,13.20
2022-12-19T14:42:02.289Z,14.57
2022-12-19T14:52:25.145Z,13.53
2022-12-19T14:53:52.385Z,13.63
2022-12-19T14:54:27.383Z,12.47
2022-12-19T14:57:25.150Z,13.27
2022-12-19T15:01:10.369Z,16.63
2022-12-19T15:03:23.302Z,14.13
2022-12-19T15:05:53.583Z,14.20
2022-12-19T15:09:50.615Z,12.80
2022-12-19T15:11:53.863Z,12.20
2022-12-19T15:14:56.672Z,14.27
2022-12-19T15:17:21.899Z,13.40
2022-12-19T15:19:50.474Z,13.77
2022-12-19T15:22:19.848Z,14.17
2022-12-19T15:24:48.097Z,13.23
2022-12-19T15:27:18.875Z,14.40
2022-12-19T15:29:47.271Z,14.10
2022-12-19T15:32:16.487Z,14.77
2022-12-19T15:34:51.081Z,15.00
2022-12-19T15:37:22.523Z,14.53
2022-12-19T15:39:50.876Z,12.87
2022-12-19T15:42:22.367Z,13.27
2022-12-19T15:44:52.272Z,12.23
2022-12-19T15:47:25.849Z,12.50
2022-12-19T15:49:55.710Z,12.23
2022-12-19T15:52:25.716Z,14.77
2022-12-19T15:54:56.781Z,13.63
2022-12-19T15:57:31.911Z,13.97
2022-12-19T16:00:03.428Z,12.00
2022-12-19T16:05:24.945Z,16.93
2022-12-19T16:07:53.455Z,14.10
2022-12-19T16:10:22.487Z,13.47
2022-12-19T16:12:53.195Z,14.03
2022-12-19T16:15:26.536Z,13.00
2022-12-19T16:17:55.596Z,17.75
2022-12-19T16:20:28.086Z,14.97
2022-12-19T16:22:56.513Z,14.83
2022-12-19T16:25:29.370Z,13.43
2022-12-19T16:27:59.443Z,12.80
2022-12-19T16:30:30.621Z,15.77
2022-12-19T16:32:59.155Z,12.30
2022-12-19T16:38:19.466Z,12.53
2022-12-19T16:40:48.531Z,13.50
2022-12-19T16:43:25.586Z,12.43
2022-12-19T16:45:59.814Z,12.40
2022-12-19T16:48:30.679Z,12.37
2022-12-19T16:51:00.725Z,12.00
2022-12-19T16:53:29.410Z,12.73
2022-12-19T16:55:58.326Z,14.30
2022-12-19T16:58:29.023Z,11.73
2022-12-19T17:00:57.565Z,13.00
2022-12-19T17:03:30.566Z,11.90
2022-12-19T17:06:00.219Z,13.83
2022-12-19T17:08:28.596Z,11.50
2022-12-19T17:10:56.991Z,15.98
2022-12-19T17:13:26.062Z,12.83
2022-12-19T17:15:56.984Z,14.03
2022-12-19T17:18:29.764Z,13.83
2022-12-19T17:20:59.478Z,14.87
2022-12-19T17:23:30.260Z,13.90
2022-12-19T17:25:59.526Z,14.90
2022-12-19T17:28:28.317Z,13.77
2022-12-19T17:30:58.809Z,14.63
2022-12-19T17:33:32.811Z,13.87
2022-12-19T17:36:03.980Z,15.70
2022-12-19T17:38:32.296Z,14.20
2022-12-19T17:41:00.885Z,13.77
2022-12-19T17:43:29.206Z,12.77
2022-12-19T17:45:58.319Z,13.80
2022-12-19T17:48:29.258Z,13.47
2022-12-19T17:50:58.412Z,12.40
2022-12-19T17:53:28.107Z,13.33
2022-12-19T17:55:56.597Z,13.63
2022-12-19T17:58:25.479Z,12.33
2022-12-19T18:00:54.157Z,12.93
2022-12-19T18:03:25.149Z,16.42
2022-12-19T18:05:55.119Z,12.97
2022-12-19T18:08:28.135Z,12.67
2022-12-19T18:10:57.934Z,14.70
2022-12-19T18:13:27.593Z,15.60
2022-12-19T18:15:59.614Z,13.87
2022-12-19T18:18:31.092Z,13.90
2022-12-19T18:21:01.631Z,14.70
2022-12-19T18:23:31.665Z,13.73
2022-12-19T18:26:02.405Z,13.90
2022-12-19T18:28:31.432Z,15.63
2022-12-19T18:31:02.905Z,14.27
2022-12-19T18:33:38.022Z,13.13
2022-12-19T18:36:07.724Z,13.10
2022-12-19T18:38:37.399Z,14.63
2022-12-19T18:41:05.951Z,14.75
2022-12-19T18:43:34.205Z,14.33
2022-12-19T18:46:02.602Z,12.73
2022-12-19T18:49:29.171Z,13.97
2022-12-19T18:51:57.852Z,13.43
2022-12-19T18:54:28.773Z,17.48
2022-12-19T18:56:57.487Z,13.87
2022-12-19T18:59:25.797Z,14.10
2022-12-19T19:01:55.630Z,14.60
2022-12-19T19:04:24.236Z,14.23
2022-12-19T19:06:55.237Z,15.15
2022-12-19T19:09:24.096Z,13.90
2022-12-19T19:11:53.866Z,13.43
2022-12-19T19:14:22.148Z,14.67
2022-12-19T19:16:52.465Z,13.33
2022-12-19T19:19:20.953Z,16.42
2022-12-19T19:21:51.997Z,15.77
2022-12-19T19:24:22.901Z,13.33
2022-12-19T19:26:51.197Z,13.27
2022-12-19T19:29:20.860Z,12.90
2022-12-19T19:31:51.396Z,14.30
2022-12-19T19:34:22.801Z,15.27
2022-12-19T19:36:56.143Z,14.47
2022-12-19T19:39:24.951Z,13.47
2022-12-19T19:41:53.722Z,14.10
2022-12-19T19:44:23.440Z,14.53
2022-12-19T19:46:51.816Z,16.60
2022-12-19T19:49:21.782Z,14.67
2022-12-19T19:51:50.103Z,14.10
2022-12-19T19:54:18.575Z,15.27
2022-12-19T19:56:46.868Z,14.97
2022-12-19T19:59:15.154Z,17.60
2022-12-19T20:01:44.887Z,14.70
2022-12-19T20:04:13.547Z,17.20
2022-12-19T20:06:42.007Z,16.10
2022-12-19T20:09:10.273Z,14.90
2022-12-19T20:11:38.602Z,18.52
2022-12-19T20:14:06.975Z,15.77
2022-12-19T20:16:36.097Z,15.93
2022-12-19T20:19:05.747Z,16.47
2022-12-19T20:21:34.021Z,16.07
2022-12-19T20:24:02.642Z,18.20
2022-12-19T20:26:31.516Z,16.03
2022-12-19T20:28:59.794Z,15.47
2022-12-19T20:31:28.634Z,16.83
2022-12-19T20:33:57.670Z,16.00
2022-12-19T20:36:27.391Z,16.13
2022-12-19T20:38:56.346Z,15.67
2022-12-19T20:41:24.707Z,18.10
2022-12-19T20:43:53.296Z,18.00
2022-12-19T20:46:22.937Z,15.33
2022-12-19T20:48:52.309Z,19.27
2022-12-19T20:51:22.136Z,16.03
2022-12-19T20:53:54.766Z,18.17
2022-12-19T20:56:25.933Z,15.90
2022-12-19T20:58:54.536Z,19.73
2022-12-19T21:01:24.834Z,29.70
2022-12-19T21:03:53.701Z,24.00
2022-12-19T21:06:25.379Z,21.83
2022-12-19T21:08:55.641Z,17.40
2022-12-19T21:11:24.831Z,17.30
2022-12-19T21:13:53.324Z,20.13
2022-12-19T21:16:23.352Z,16.87
2022-12-19T21:18:52.521Z,17.07
2022-12-19T21:21:23.327Z,16.83
2022-12-19T21:23:52.728Z,15.87
2022-12-19T21:26:23.704Z,18.10
2022-12-19T21:28:52.251Z,14.63
2022-12-19T21:31:23.496Z,16.37
2022-12-19T21:33:54.633Z,17.00
2022-12-19T21:36:25.579Z,17.43
2022-12-19T21:38:57.343Z,14.83
2022-12-19T21:41:27.489Z,14.67
2022-12-19T21:43:56.814Z,17.00
2022-12-19T21:46:28.004Z,16.03
2022-12-19T21:48:57.519Z,16.90
2022-12-19T21:51:28.008Z,15.17
2022-12-19T21:53:57.157Z,15.27
2022-12-19T21:56:28.826Z,16.47
2022-12-19T21:58:59.506Z,14.87
2022-12-19T22:01:29.576Z,14.40
2022-12-19T22:04:00.930Z,16.93
2022-12-19T22:06:32.298Z,16.07
2022-12-19T22:09:01.409Z,16.80
2022-12-19T22:11:31.841Z,16.33
2022-12-19T22:14:01.391Z,16.57
2022-12-19T22:16:30.002Z,20.37
2022-12-19T22:18:58.476Z,17.73
2022-12-19T22:21:27.471Z,17.30
2022-12-19T22:23:58.715Z,15.53
2022-12-19T22:26:28.160Z,16.60
2022-12-19T22:28:58.568Z,18.20
2022-12-19T22:31:29.116Z,16.80
2022-12-19T22:33:59.420Z,17.30
2022-12-19T22:36:31.510Z,16.60
2022-12-19T22:39:00.939Z,16.50
2022-12-19T22:41:29.638Z,17.27
2022-12-19T22:43:59.314Z,16.83
2022-12-19T22:46:29.533Z,16.33
2022-12-19T22:48:59.572Z,16.50
2022-12-19T22:51:29.026Z,15.97
2022-12-19T22:53:57.690Z,16.80
2022-12-19T22:56:27.424Z,16.33
2022-12-19T22:58:57.639Z,17.07
2022-12-19T23:01:29.523Z,18.60
2022-12-19T23:04:01.276Z,17.23
2022-12-19T23:06:32.071Z,17.63
2022-12-19T23:09:00.378Z,16.57
2022-12-19T23:11:31.486Z,16.70
2022-12-19T23:14:00.257Z,17.17
2022-12-19T23:16:30.523Z,16.10
2022-12-19T23:18:58.806Z,15.00
2022-12-19T23:21:27.956Z,16.43
2022-12-19T23:23:57.467Z,17.43
2022-12-19T23:26:27.975Z,14.93
2022-12-19T23:28:59.019Z,15.10
2022-12-19T23:31:29.540Z,16.23
2022-12-19T23:33:58.332Z,16.98
2022-12-19T23:37:01.011Z,17.00
2022-12-19T23:39:15.824Z,17.03
2022-12-19T23:41:44.303Z,16.90
2022-12-19T23:44:12.860Z,16.70
2022-12-19T23:46:42.596Z,16.48
2022-12-19T23:49:10.900Z,16.20
2022-12-19T23:51:39.327Z,17.07
2022-12-19T23:54:08.822Z,15.70
2022-12-19T23:56:37.488Z,15.67
2022-12-19T23:59:06.352Z,14.77
